Time;durP1;ratioP1;P1;durP2;ratioP2;P2;SDS_P1;SDS_P2;PMS_P1;PMS_P2;Temp;Humidity;BMP_temperature;BMP_pressure;BME280_temperature;BME280_humidity;BME280_pressure;Samples;Min_cycle;Max_cycle;Signal;HPM_P1;HPM_P2
2023/02/05 00:01:22;;;;;;;28.13;21.15;;;0.60;99.90;;;;;;5050299;28;20509;-71
2023/02/05 00:03:49;;;;;;;23.35;18.67;;;0.50;99.90;;;;;;5054361;28;20685;-71
2023/02/05 00:06:16;;;;;;;24.88;19.08;;;0.60;99.90;;;;;;5035089;28;20028;-71
2023/02/05 00:08:43;;;;;;;20.23;18.02;;;0.60;99.90;;;;;;5054559;28;20039;-72
2023/02/05 00:11:09;;;;;;;18.30;16.15;;;0.60;99.90;;;;;;5052945;28;20044;-71
2023/02/05 00:13:38;;;;;;;18.90;16.90;;;0.50;99.90;;;;;;5052496;28;20160;-72
2023/02/05 00:16:12;;;;;;;19.38;17.50;;;0.40;99.90;;;;;;5056370;28;20041;-72
2023/02/05 00:18:39;;;;;;;;;;;0.40;99.90;;;;;;5052675;28;20041;-70
2023/02/05 00:21:06;;;;;;;18.92;16.88;;;0.30;99.90;;;;;;5056162;28;20389;-70
2023/02/05 00:23:33;;;;;;;19.50;17.50;;;0.20;99.90;;;;;;5053091;28;20044;-70
2023/02/05 00:26:01;;;;;;;22.05;18.42;;;0.10;99.90;;;;;;5053495;28;20051;-70
2023/02/05 00:28:30;;;;;;;19.45;17.23;;;0.20;99.90;;;;;;5052069;28;20497;-70
2023/02/05 00:30:57;;;;;;;17.58;15.55;;;0.40;99.90;;;;;;5048605;28;20127;-69
2023/02/05 00:33:23;;;;;;;16.20;12.98;;;0.40;99.90;;;;;;5050771;28;20049;-70
2023/02/05 00:35:50;;;;;;;13.57;12.38;;;0.40;99.90;;;;;;5054427;28;20672;-70
2023/02/05 00:38:17;;;;;;;12.80;11.70;;;0.40;99.90;;;;;;5052554;28;20279;-72
2023/02/05 00:40:43;;;;;;;13.38;12.05;;;0.40;99.90;;;;;;5052047;28;20056;-72
2023/02/05 00:43:10;;;;;;;13.60;12.27;;;0.40;99.90;;;;;;5051557;28;20375;-72
2023/02/05 00:45:37;;;;;;;15.65;14.13;;;0.40;99.90;;;;;;5034688;28;20076;-72
2023/02/05 00:48:04;;;;;;;13.77;12.55;;;0.30;99.90;;;;;;5054852;28;20480;-70
2023/02/05 00:50:32;;;;;;;13.48;12.10;;;0.30;99.90;;;;;;5049417;28;20375;-70
2023/02/05 00:52:59;;;;;;;16.33;14.02;;;0.30;99.90;;;;;;5049281;28;20076;-70
2023/02/05 00:55:26;;;;;;;15.25;13.20;;;0.30;99.90;;;;;;5051000;28;20751;-70
2023/02/05 00:57:53;;;;;;;15.02;13.52;;;0.40;99.90;;;;;;5053634;28;20156;-72
2023/02/05 01:00:21;;;;;;;15.57;13.90;;;0.40;99.90;;;;;;5051517;28;20044;-72
2023/02/05 01:02:47;;;;;;;15.25;13.82;;;0.40;99.90;;;;;;5050096;28;20143;-71
2023/02/05 01:05:14;;;;;;;15.50;13.88;;;0.30;99.90;;;;;;5055403;28;20089;-71
2023/02/05 01:07:41;;;;;;;17.70;15.90;;;0.40;99.90;;;;;;5054364;28;20032;-72
2023/02/05 01:10:08;;;;;;;17.75;15.38;;;0.30;99.90;;;;;;5039786;28;20037;-72
2023/02/05 01:12:35;;;;;;;15.85;14.27;;;0.30;99.90;;;;;;5056177;28;21074;-72
2023/02/05 01:15:03;;;;;;;16.80;13.90;;;0.40;99.90;;;;;;5037551;28;20044;-71
2023/02/05 01:17:30;;;;;;;15.68;14.02;;;0.40;99.90;;;;;;5052888;28;20279;-72
2023/02/05 01:19:57;;;;;;;14.32;13.05;;;0.40;99.90;;;;;;5074722;28;20044;-71
2023/02/05 01:22:24;;;;;;;13.13;11.90;;;0.30;99.90;;;;;;5053473;28;20123;-70
2023/02/05 01:24:50;;;;;;;13.30;12.10;;;0.40;99.90;;;;;;5044563;28;20508;-72
2023/02/05 01:27:17;;;;;;;12.88;11.68;;;0.40;99.90;;;;;;5045646;28;20043;-71
2023/02/05 01:29:44;;;;;;;12.43;11.32;;;0.40;99.90;;;;;;5038497;28;20037;-71
2023/02/05 01:32:10;;;;;;;15.82;11.50;;;0.40;99.90;;;;;;5056991;28;20040;-72
2023/02/05 01:34:37;;;;;;;13.32;11.98;;;0.40;99.90;;;;;;5039009;28;20060;-71
2023/02/05 01:37:04;;;;;;;13.13;11.73;;;0.40;99.90;;;;;;5052427;28;20498;-69
2023/02/05 01:39:30;;;;;;;12.77;11.63;;;0.40;99.90;;;;;;5054038;28;20039;-69
2023/02/05 01:41:57;;;;;;;11.43;10.35;;;0.50;99.90;;;;;;5050998;28;20490;-70
2023/02/05 01:44:24;;;;;;;11.32;10.23;;;0.50;99.90;;;;;;5037583;28;20063;-72
2023/02/05 01:46:54;;;;;;;12.27;10.93;;;0.40;99.90;;;;;;5054114;28;20044;-72
2023/02/05 01:49:29;;;;;;;13.77;10.85;;;0.40;99.90;;;;;;5041646;28;20517;-70
2023/02/05 01:52:00;;;;;;;11.00;9.98;;;0.50;99.90;;;;;;5057823;28;20047;-71
2023/02/05 01:54:30;;;;;;;14.70;9.63;;;0.40;99.90;;;;;;5036447;28;20406;-70
2023/02/05 01:57:05;;;;;;;11.75;9.85;;;0.50;99.90;;;;;;5056175;28;20044;-70
2023/02/05 01:59:33;;;;;;;;;;;0.50;99.90;;;;;;5051467;28;20048;-70
2023/02/05 02:02:05;;;;;;;11.10;9.82;;;0.50;99.90;;;;;;5057532;28;20092;-70
2023/02/05 02:04:44;;;;;;;11.52;10.40;;;0.50;99.90;;;;;;5049793;28;20048;-71
2023/02/05 02:07:14;;;;;;;10.45;9.45;;;0.60;99.90;;;;;;5050541;28;20074;-70
2023/02/05 02:09:44;;;;;;;11.05;10.05;;;0.60;99.90;;;;;;5041506;28;20036;-70
2023/02/05 02:12:15;;;;;;;11.25;9.73;;;0.60;99.90;;;;;;5055344;28;20490;-70
2023/02/05 02:14:46;;;;;;;11.48;10.38;;;0.50;99.90;;;;;;5039789;28;20058;-70
2023/02/05 02:17:15;;;;;;;12.10;10.15;;;0.60;99.90;;;;;;5056698;28;20047;-71
2023/02/05 02:19:51;;;;;;;11.23;10.32;;;0.50;99.90;;;;;;5040046;28;20570;-70
2023/02/05 02:22:39;;;;;;;12.00;11.00;;;0.50;99.90;;;;;;5055203;28;20044;-70
2023/02/05 02:25:33;;;;;;;12.80;10.77;;;0.40;99.90;;;;;;5053677;28;20055;-70
2023/02/05 02:28:17;;;;;;;12.70;11.60;;;0.40;99.90;;;;;;5065902;28;20040;-70
2023/02/05 02:31:10;;;;;;;12.40;11.30;;;0.30;99.90;;;;;;5061592;28;20040;-70
2023/02/05 02:33:53;;;;;;;12.48;11.23;;;0.40;99.90;;;;;;5042913;28;20624;-70
2023/02/05 02:36:26;;;;;;;11.98;10.85;;;0.40;99.90;;;;;;5073209;28;20519;-70
2023/02/05 02:39:01;;;;;;;12.68;11.38;;;0.40;99.90;;;;;;5052697;28;20040;-70
2023/02/05 02:41:34;;;;;;;12.73;11.35;;;0.50;99.90;;;;;;5060609;28;20466;-70
2023/02/05 02:44:11;;;;;;;16.70;11.10;;;0.50;99.90;;;;;;5074524;28;20451;-70
2023/02/05 02:46:46;;;;;;;11.35;10.25;;;0.50;99.90;;;;;;5037512;28;20151;-70
2023/02/05 02:49:23;;;;;;;14.63;10.45;;;0.60;99.90;;;;;;5057296;28;20124;-70
2023/02/05 02:51:52;;;;;;;11.90;10.90;;;0.60;99.90;;;;;;5058979;28;20127;-70
2023/02/05 02:54:20;;;;;;;12.43;11.27;;;0.60;99.90;;;;;;5056107;28;20509;-70
2023/02/05 02:56:50;;;;;;;13.05;11.75;;;0.80;99.90;;;;;;5053981;28;20118;-71
2023/02/05 02:59:22;;;;;;;12.82;11.75;;;0.70;99.90;;;;;;5055451;28;20135;-70
2023/02/05 03:01:54;;;;;;;12.50;11.48;;;0.70;99.90;;;;;;5058849;28;20109;-71
2023/02/05 03:04:29;;;;;;;13.10;11.80;;;0.80;99.90;;;;;;5053725;28;20136;-71
2023/02/05 03:07:08;;;;;;;12.57;11.50;;;0.90;99.90;;;;;;5063878;28;20044;-70
2023/02/05 03:09:49;;;;;;;13.38;12.05;;;1.00;99.90;;;;;;5073199;28;20457;-70
2023/02/05 03:12:18;;;;;;;12.23;11.13;;;1.10;99.90;;;;;;5057423;28;20036;-70
2023/02/05 03:14:45;;;;;;;11.93;11.00;;;1.20;99.90;;;;;;5074090;28;20039;-71
2023/02/05 03:17:17;;;;;;;12.35;11.25;;;1.20;99.90;;;;;;5048519;28;20464;-70
2023/02/05 03:19:56;;;;;;;12.68;11.15;;;1.20;99.90;;;;;;5064159;28;20048;-70
2023/02/05 03:22:24;;;;;;;13.75;12.45;;;1.40;99.90;;;;;;5052910;28;20128;-70
2023/02/05 03:24:52;;;;;;;13.00;12.00;;;1.30;99.90;;;;;;5043517;28;20055;-70
2023/02/05 03:27:20;;;;;;;13.45;12.30;;;1.20;99.90;;;;;;5058209;28;20490;-70
2023/02/05 03:29:49;;;;;;;13.90;12.55;;;1.40;99.90;;;;;;5058324;28;20067;-70
2023/02/05 03:32:46;;;;;;;14.60;13.20;;;1.60;99.90;;;;;;5054991;28;20032;-71
2023/02/05 03:35:55;;;;;;;14.68;13.38;;;1.60;99.90;;;;;;5073262;28;20097;-70
2023/02/05 03:38:37;;;;;;;14.70;13.40;;;1.50;99.90;;;;;;5054367;28;20398;-71
2023/02/05 03:41:54;;;;;;;14.18;13.05;;;1.60;99.90;;;;;;5044205;28;20048;-71
2023/02/05 03:44:39;;;;;;;16.30;14.05;;;1.60;99.90;;;;;;5062552;28;20075;-71
2023/02/05 03:47:24;;;;;;;15.10;13.80;;;1.60;99.90;;;;;;5062969;28;20044;-71
2023/02/05 03:50:13;;;;;;;15.68;14.20;;;1.50;99.90;;;;;;5096846;28;20043;-70
2023/02/05 03:52:50;;;;;;;14.35;13.15;;;1.50;99.90;;;;;;5087081;28;20142;-70
2023/02/05 03:55:22;;;;;;;17.70;13.15;;;1.40;99.90;;;;;;5063455;28;20135;-70
2023/02/05 03:57:57;;;;;;;16.38;14.85;;;1.60;99.90;;;;;;5059321;28;20036;-70
2023/02/05 04:00:26;;;;;;;14.73;13.23;;;1.60;99.90;;;;;;5039442;28;20051;-70
2023/02/05 04:02:54;;;;;;;14.55;13.20;;;1.60;99.90;;;;;;5062563;28;20040;-71
2023/02/05 04:05:25;;;;;;;13.65;12.75;;;1.60;99.90;;;;;;5052065;28;20058;-71
2023/02/05 04:07:54;;;;;;;14.52;13.27;;;1.70;99.90;;;;;;5060552;28;20202;-71
2023/02/05 04:10:24;;;;;;;13.38;12.00;;;1.60;99.90;;;;;;5061040;28;20517;-70
2023/02/05 04:12:51;;;;;;;14.00;12.70;;;1.60;99.90;;;;;;5062672;28;20044;-70
2023/02/05 04:15:18;;;;;;;15.25;12.60;;;1.60;99.90;;;;;;5059284;28;20213;-70
2023/02/05 04:17:49;;;;;;;14.90;13.80;;;1.60;99.90;;;;;;5058441;28;20155;-71
2023/02/05 04:20:16;;;;;;;15.50;14.15;;;1.70;99.90;;;;;;5048486;28;20043;-70
2023/02/05 04:22:43;;;;;;;16.13;14.55;;;1.70;99.90;;;;;;5038991;28;20436;-70
2023/02/05 04:25:10;;;;;;;14.93;13.65;;;1.80;99.90;;;;;;5037910;28;20490;-71
2023/02/05 04:27:37;;;;;;;15.02;13.80;;;1.70;99.90;;;;;;5035587;28;20911;-70
2023/02/05 04:30:05;;;;;;;15.55;14.25;;;1.60;99.90;;;;;;5057388;28;20067;-70
2023/02/05 04:32:35;;;;;;;15.23;14.05;;;1.70;99.90;;;;;;5041085;28;20158;-70
2023/02/05 04:35:02;;;;;;;16.25;14.75;;;1.80;99.90;;;;;;5057776;28;20128;-70
2023/02/05 04:37:29;;;;;;;17.20;15.65;;;1.80;99.90;;;;;;5055789;28;20135;-69
2023/02/05 04:39:56;;;;;;;17.23;15.82;;;1.80;99.90;;;;;;5058535;28;20056;-70
2023/02/05 04:42:22;;;;;;;17.02;15.68;;;1.90;99.90;;;;;;5073191;28;20044;-70
2023/02/05 04:44:51;;;;;;;17.00;15.70;;;1.80;99.90;;;;;;5058293;28;20052;-69
2023/02/05 04:47:18;;;;;;;18.15;16.73;;;1.70;99.90;;;;;;5073505;28;20046;-72
2023/02/05 04:49:44;;;;;;;19.60;18.13;;;1.80;99.90;;;;;;5076611;28;20036;-72
2023/02/05 04:52:12;;;;;;;18.17;16.67;;;1.80;99.90;;;;;;5053909;28;20044;-72
2023/02/05 04:54:38;;;;;;;17.55;16.30;;;1.80;99.90;;;;;;5042817;28;20036;-72
2023/02/05 04:57:05;;;;;;;18.83;16.92;;;1.80;99.90;;;;;;5070864;28;20106;-72
2023/02/05 04:59:32;;;;;;;19.85;17.45;;;1.90;99.90;;;;;;5067434;28;20040;-72
2023/02/05 05:01:59;;;;;;;19.38;17.65;;;1.90;99.90;;;;;;5038370;28;20041;-72
2023/02/05 05:04:26;;;;;;;18.40;17.10;;;1.80;99.90;;;;;;5073612;28;20270;-72
2023/02/05 05:06:52;;;;;;;17.65;16.05;;;1.80;99.90;;;;;;5070956;28;20047;-72
2023/02/05 05:09:22;;;;;;;16.83;15.23;;;1.90;99.90;;;;;;5070430;28;20036;-73
2023/02/05 05:11:53;;;;;;;17.95;16.33;;;1.90;99.90;;;;;;5070553;28;20143;-72
2023/02/05 05:14:19;;;;;;;17.05;15.38;;;2.00;99.90;;;;;;5073122;28;20462;-72
2023/02/05 05:16:48;;;;;;;15.93;14.40;;;2.10;99.90;;;;;;5057551;28;20151;-73
2023/02/05 05:19:14;;;;;;;16.58;15.20;;;2.00;99.90;;;;;;5073679;28;20048;-72
2023/02/05 05:21:41;;;;;;;17.27;15.70;;;2.00;99.90;;;;;;5055521;28;20302;-72
2023/02/05 05:24:08;;;;;;;16.63;15.35;;;2.00;99.90;;;;;;5071497;28;20101;-70
2023/02/05 05:26:35;;;;;;;17.42;16.02;;;2.00;99.90;;;;;;5072623;28;20036;-70
2023/02/05 05:29:01;;;;;;;17.02;15.82;;;2.00;99.90;;;;;;5062250;28;20202;-70
2023/02/05 05:31:29;;;;;;;17.73;16.25;;;2.00;99.90;;;;;;5054725;28;20040;-69
2023/02/05 05:33:55;;;;;;;17.23;15.68;;;2.00;99.90;;;;;;5074747;28;20421;-71
2023/02/05 05:36:22;;;;;;;17.85;16.20;;;2.00;99.90;;;;;;5054655;28;20050;-72
2023/02/05 05:38:49;;;;;;;16.85;15.55;;;1.90;99.90;;;;;;5057606;28;20417;-73
2023/02/05 05:44:09;;;;;;;16.15;14.95;;;1.90;99.90;;;;;;5069636;28;20445;-72
2023/02/05 05:46:35;;;;;;;15.48;13.98;;;1.90;99.90;;;;;;5055141;28;20040;-72
2023/02/05 05:49:02;;;;;;;14.30;12.95;;;1.80;99.90;;;;;;5071226;28;20242;-69
2023/02/05 05:51:31;;;;;;;15.80;14.20;;;1.80;99.90;;;;;;5049304;28;20047;-72
2023/02/05 05:53:58;;;;;;;14.48;12.95;;;1.70;99.90;;;;;;5057168;28;20055;-72
2023/02/05 05:56:24;;;;;;;13.65;12.23;;;1.70;99.90;;;;;;5057545;28;20070;-72
2023/02/05 05:58:51;;;;;;;14.45;11.75;;;1.60;99.90;;;;;;5060847;28;20051;-72
2023/02/05 06:01:20;;;;;;;13.43;11.35;;;1.60;99.90;;;;;;5074667;28;20131;-71
2023/02/05 06:03:47;;;;;;;12.73;11.35;;;1.50;99.90;;;;;;5061525;28;20040;-72
2023/02/05 06:06:14;;;;;;;14.15;10.75;;;1.50;99.90;;;;;;5051720;28;20076;-73
2023/02/05 06:08:41;;;;;;;17.20;11.50;;;1.40;99.90;;;;;;5042943;28;20044;-72
2023/02/05 06:11:07;;;;;;;18.50;12.63;;;1.40;99.90;;;;;;5061339;28;20054;-72
2023/02/05 06:13:34;;;;;;;18.75;11.07;;;1.50;99.90;;;;;;5077994;28;20158;-70
2023/02/05 06:16:01;;;;;;;19.08;11.80;;;1.50;99.90;;;;;;5076869;28;20502;-70
2023/02/05 06:18:28;;;;;;;18.25;11.55;;;1.50;99.90;;;;;;5059757;28;20071;-70
2023/02/05 06:20:55;;;;;;;14.38;10.82;;;1.50;99.90;;;;;;5049838;28;20051;-71
2023/02/05 06:23:22;;;;;;;18.75;11.48;;;1.50;99.90;;;;;;5077499;28;20127;-71
2023/02/05 06:25:48;;;;;;;19.65;12.15;;;1.50;99.90;;;;;;5037075;28;20313;-71
2023/02/05 06:28:15;;;;;;;20.35;11.93;;;1.50;99.90;;;;;;5061660;28;20135;-71
2023/02/05 06:30:42;;;;;;;19.70;11.60;;;1.50;99.90;;;;;;5058549;28;20040;-70
2023/02/05 06:33:11;;;;;;;27.67;12.90;;;1.60;99.90;;;;;;5057850;28;20079;-70
2023/02/05 06:35:39;;;;;;;22.95;13.27;;;1.60;99.90;;;;;;5053084;28;20052;-70
2023/02/05 06:38:06;;;;;;;18.50;12.00;;;1.60;99.90;;;;;;5058703;28;20048;-70
2023/02/05 06:40:33;;;;;;;24.02;12.82;;;1.60;99.90;;;;;;5073577;28;20099;-70
2023/02/05 06:42:59;;;;;;;24.13;14.30;;;1.60;99.90;;;;;;5079023;28;20314;-70
2023/02/05 06:45:26;;;;;;;20.15;12.15;;;1.70;99.90;;;;;;5071818;28;20067;-69
2023/02/05 06:47:54;;;;;;;18.05;12.70;;;1.60;99.90;;;;;;5057272;28;20040;-70
2023/02/05 06:50:22;;;;;;;21.05;13.50;;;1.70;99.90;;;;;;5052062;28;20162;-70
2023/02/05 06:52:50;;;;;;;30.10;12.45;;;1.70;99.90;;;;;;5060246;28;20117;-70
2023/02/05 06:55:17;;;;;;;23.88;13.55;;;1.80;99.90;;;;;;5063460;28;20462;-70
2023/02/05 06:57:44;;;;;;;23.08;13.07;;;1.80;99.90;;;;;;5035078;28;20097;-70
2023/02/05 07:00:11;;;;;;;23.30;13.57;;;1.70;99.90;;;;;;5058735;28;20434;-71
2023/02/05 07:02:38;;;;;;;33.10;14.45;;;1.80;99.90;;;;;;5069422;28;21210;-71
2023/02/05 07:05:05;;;;;;;25.90;14.27;;;1.90;99.90;;;;;;5043199;28;20592;-71
2023/02/05 07:07:32;;;;;;;29.30;14.90;;;2.00;99.90;;;;;;5070225;28;20067;-74
2023/02/05 07:09:59;;;;;;;27.90;15.10;;;2.10;99.90;;;;;;5058635;28;20273;-74
2023/02/05 07:12:26;;;;;;;32.65;17.00;;;2.10;99.90;;;;;;5056769;28;20047;-74
2023/02/05 07:14:52;;;;;;;36.30;21.10;;;2.10;99.90;;;;;;5078439;28;20047;-74
2023/02/05 07:17:19;;;;;;;36.92;19.75;;;2.00;99.90;;;;;;5053614;28;20317;-73
2023/02/05 07:19:46;;;;;;;42.15;20.13;;;2.00;99.90;;;;;;5071279;28;20064;-75
2023/02/05 07:22:13;;;;;;;39.63;19.63;;;2.00;99.90;;;;;;5058790;28;20131;-75
2023/02/05 07:24:40;;;;;;;35.17;17.73;;;2.00;99.90;;;;;;5071712;28;20036;-76
2023/02/05 07:27:07;;;;;;;27.95;17.23;;;1.90;99.90;;;;;;5077022;28;20051;-73
2023/02/05 07:29:33;;;;;;;29.55;17.05;;;1.80;99.90;;;;;;5048879;28;20032;-73
2023/02/05 07:32:00;;;;;;;30.83;15.68;;;1.80;99.90;;;;;;5055068;28;20055;-73
2023/02/05 07:34:27;;;;;;;29.08;17.42;;;1.80;99.90;;;;;;5070960;28;20143;-75
2023/02/05 07:36:54;;;;;;;36.92;17.85;;;1.80;99.90;;;;;;5066131;28;20036;-75
2023/02/05 07:39:20;;;;;;;37.08;18.35;;;1.90;99.90;;;;;;5042102;28;20131;-73
2023/02/05 07:41:47;;;;;;;30.30;17.23;;;1.90;99.90;;;;;;5055946;28;20135;-73
2023/02/05 07:44:24;;;;;;;31.65;16.55;;;1.80;99.90;;;;;;5048181;28;20063;-73
2023/02/05 07:46:51;;;;;;;38.70;16.80;;;1.80;99.90;;;;;;5076712;28;20036;-76
2023/02/05 07:49:18;;;;;;;35.03;18.27;;;1.90;99.90;;;;;;5058223;28;20510;-75
2023/02/05 07:51:46;;;;;;;40.67;17.27;;;1.90;99.90;;;;;;5054786;28;20043;-76
2023/02/05 07:54:14;;;;;;;39.60;19.45;;;1.90;99.90;;;;;;5050074;28;20055;-76
2023/02/05 07:56:41;;;;;;;45.10;20.52;;;2.00;99.90;;;;;;5042426;28;20180;-73
2023/02/05 07:59:08;;;;;;;38.80;21.10;;;2.00;99.90;;;;;;5037165;28;20344;-76
2023/02/05 08:01:35;;;;;;;39.78;20.45;;;1.90;99.90;;;;;;5050936;28;20036;-75
2023/02/05 08:04:02;;;;;;;407.35;223.85;;;2.00;99.90;;;;;;5042981;28;20482;-76
2023/02/05 08:06:28;;;;;;;63.13;29.45;;;2.10;99.90;;;;;;5054501;28;20172;-76
2023/02/05 08:08:56;;;;;;;64.85;29.48;;;2.00;99.90;;;;;;5078049;28;20042;-75
2023/02/05 08:11:23;;;;;;;239.90;139.65;;;2.00;99.90;;;;;;5050796;28;20036;-75
2023/02/05 08:13:49;;;;;;;71.38;36.17;;;2.10;99.90;;;;;;5042019;28;20048;-76
2023/02/05 08:16:16;;;;;;;59.88;34.25;;;2.10;99.90;;;;;;5058252;28;20139;-73
2023/02/05 08:18:48;;;;;;;64.80;38.58;;;2.10;99.90;;;;;;5051829;28;20132;-74
2023/02/05 08:21:15;;;;;;;49.92;27.85;;;2.20;99.90;;;;;;5050205;28;20302;-74
2023/02/05 08:23:42;;;;;;;49.95;23.75;;;2.20;99.90;;;;;;5056316;28;20128;-74
2023/02/05 08:26:09;;;;;;;55.63;25.67;;;2.20;99.90;;;;;;5057767;28;20062;-74
2023/02/05 08:28:36;;;;;;;51.00;27.42;;;2.30;99.90;;;;;;5042818;28;20040;-74
2023/02/05 08:31:09;;;;;;;60.15;29.83;;;2.30;99.90;;;;;;5044150;28;20036;-74
2023/02/05 08:33:35;;;;;;;61.60;30.15;;;2.40;99.90;;;;;;5055994;28;20032;-73
2023/02/05 08:36:02;;;;;;;74.55;40.53;;;2.50;99.90;;;;;;5052961;28;20147;-74
2023/02/05 08:38:29;;;;;;;86.13;47.00;;;2.60;99.90;;;;;;5074649;28;20052;-74
2023/02/05 08:40:56;;;;;;;99.00;50.45;;;2.60;99.90;;;;;;5036166;28;20048;-74
2023/02/05 08:43:23;;;;;;;88.05;42.83;;;2.70;99.90;;;;;;5065717;28;20117;-74
2023/02/05 08:45:50;;;;;;;79.88;33.53;;;2.70;99.90;;;;;;5052346;28;20048;-74
2023/02/05 08:48:16;;;;;;;113.15;52.25;;;2.60;99.90;;;;;;5084663;28;20098;-73
2023/02/05 08:50:45;;;;;;;69.57;33.45;;;2.60;99.90;;;;;;5051126;28;20047;-74
2023/02/05 08:53:11;;;;;;;70.20;33.65;;;2.70;99.90;;;;;;5055024;28;20047;-74
2023/02/05 08:55:38;;;;;;;220.90;122.85;;;2.60;99.90;;;;;;5045251;28;20101;-74
2023/02/05 08:58:04;;;;;;;68.60;34.38;;;2.60;99.90;;;;;;5053423;28;20606;-74
2023/02/05 09:00:32;;;;;;;74.72;33.72;;;2.60;99.90;;;;;;5041944;28;20039;-74
2023/02/05 09:02:58;;;;;;;80.45;40.38;;;2.50;99.90;;;;;;5070490;28;20087;-73
2023/02/05 09:05:25;;;;;;;85.13;37.13;;;2.70;99.90;;;;;;5049372;28;20050;-74
2023/02/05 09:07:52;;;;;;;126.47;56.33;;;2.80;99.90;;;;;;5049145;28;20044;-74
2023/02/05 09:10:19;;;;;;;99.13;41.85;;;2.80;99.90;;;;;;5073179;28;20039;-73
2023/02/05 09:12:47;;;;;;;118.10;50.70;;;2.90;99.90;;;;;;5045230;28;20066;-74
2023/02/05 09:15:14;;;;;;;118.72;52.25;;;3.10;99.90;;;;;;5042450;28;20028;-74
2023/02/05 09:17:40;;;;;;;101.50;43.80;;;3.20;99.90;;;;;;5035906;28;20490;-74
2023/02/05 09:20:08;;;;;;;100.53;46.60;;;3.20;99.90;;;;;;5060090;28;20056;-74
2023/02/05 09:22:34;;;;;;;86.25;41.10;;;3.20;99.90;;;;;;5045554;28;20138;-74
2023/02/05 09:25:01;;;;;;;93.18;39.58;;;3.30;99.90;;;;;;5069728;28;20373;-74
2023/02/05 09:27:29;;;;;;;102.68;48.25;;;3.40;99.90;;;;;;5048664;28;20072;-74
2023/02/05 09:29:55;;;;;;;120.72;60.13;;;3.50;99.90;;;;;;5047437;28;20139;-73
2023/02/05 09:32:23;;;;;;;108.32;42.30;;;3.60;99.90;;;;;;5053719;28;20470;-74
2023/02/05 09:34:50;;;;;;;101.85;38.03;;;3.70;99.90;;;;;;5062205;28;20043;-73
2023/02/05 09:37:16;;;;;;;85.50;36.55;;;3.50;99.90;;;;;;5061659;28;20585;-74
2023/02/05 09:39:44;;;;;;;113.82;50.45;;;3.50;99.90;;;;;;5062014;28;20038;-74
2023/02/05 09:42:42;;;;;;;106.18;53.03;;;3.60;99.90;;;;;;5076495;28;20046;-73
2023/02/05 09:45:24;;;;;;;90.65;43.15;;;3.60;99.90;;;;;;5069377;28;20114;-73
2023/02/05 09:48:03;;;;;;;114.20;49.38;;;3.80;99.90;;;;;;5074219;28;20048;-72
2023/02/05 09:50:30;;;;;;;96.03;47.10;;;3.90;99.90;;;;;;5073232;28;20541;-74
2023/02/05 09:53:08;;;;;;;105.05;46.03;;;3.90;99.90;;;;;;5062750;28;20048;-73
2023/02/05 09:55:38;;;;;;;102.90;45.92;;;4.00;99.90;;;;;;5052261;28;20418;-73
2023/02/05 09:58:10;;;;;;;98.45;46.00;;;4.00;99.90;;;;;;5059975;28;20055;-73
2023/02/05 10:00:43;;;;;;;107.65;46.78;;;4.20;99.90;;;;;;5045678;28;20047;-73
2023/02/05 10:03:28;;;;;;;82.97;40.55;;;4.40;99.90;;;;;;5061339;22;20076;-79
2023/02/05 10:06:01;;;;;;;94.78;43.08;;;4.40;99.90;;;;;;5029389;28;20045;-79
2023/02/05 10:08:36;;;;;;;75.78;36.28;;;4.40;99.90;;;;;;5046950;28;20044;-81
2023/02/05 10:11:17;;;;;;;64.70;30.90;;;4.50;99.90;;;;;;5033905;28;20276;-81
2023/02/05 10:14:03;;;;;;;43.95;22.83;;;4.30;99.90;;;;;;5025622;28;20045;-81
2023/02/05 10:16:42;;;;;;;43.47;21.93;;;4.30;99.90;;;;;;5006927;28;20044;-81
2023/02/05 10:19:38;;;;;;;36.47;20.20;;;4.40;99.90;;;;;;5024611;28;20784;-81
2023/02/05 10:22:09;;;;;;;;;;;4.40;99.90;;;;;;5006927;28;20052;-80
2023/02/05 10:25:17;;;;;;;28.38;16.75;;;4.50;99.90;;;;;;5024163;28;20107;-81
2023/02/05 10:28:02;;;;;;;34.97;18.27;;;4.50;99.90;;;;;;5015399;28;20423;-81
2023/02/05 10:30:56;;;;;;;30.95;16.27;;;4.80;99.90;;;;;;5029529;28;20053;-78
2023/02/05 10:33:54;;;;;;;28.17;16.55;;;4.90;99.90;;;;;;5024530;28;20125;-78
2023/02/05 10:36:24;;;;;;;31.35;16.42;;;5.00;99.90;;;;;;5028519;28;20057;-78
2023/02/05 10:38:54;;;;;;;26.25;15.68;;;5.10;99.90;;;;;;5044127;28;20138;-78
2023/02/05 10:41:34;;;;;;;27.08;15.93;;;5.20;99.90;;;;;;5012340;28;20231;-78
2023/02/05 10:44:10;;;;;;;23.55;14.13;;;5.20;99.90;;;;;;5017343;28;20049;-78
2023/02/05 10:46:39;;;;;;;26.95;15.88;;;5.10;99.90;;;;;;5030042;28;20493;-80
2023/02/05 10:49:19;;;;;;;24.38;14.15;;;4.90;99.90;;;;;;5029724;28;20448;-80
2023/02/05 10:51:45;;;;;;;22.00;13.38;;;4.90;99.90;;;;;;5025458;28;20048;-80
2023/02/05 10:54:29;;;;;;;26.70;14.80;;;4.80;99.90;;;;;;5015475;28;20158;-80
2023/02/05 10:56:57;;;;;;;21.00;12.93;;;4.90;99.90;;;;;;5028325;28;20052;-78
2023/02/05 10:59:28;;;;;;;24.92;14.13;;;5.00;99.90;;;;;;5019160;28;20045;-78
2023/02/05 11:02:04;;;;;;;23.35;13.65;;;5.00;99.90;;;;;;5006239;28;20124;-78
2023/02/05 11:04:45;;;;;;;18.75;12.30;;;5.10;99.90;;;;;;5037164;28;20037;-79
2023/02/05 11:07:19;;;;;;;23.75;13.80;;;5.00;99.90;;;;;;5026464;28;20037;-79
2023/02/05 11:09:46;;;;;;;23.38;14.68;;;4.90;99.90;;;;;;5016081;28;20273;-78
2023/02/05 11:12:27;;;;;;;26.10;14.90;;;4.90;99.90;;;;;;5021391;28;20044;-79
2023/02/05 11:14:57;;;;;;;20.40;13.60;;;5.10;99.90;;;;;;5015223;28;20057;-78
2023/02/05 11:17:32;;;;;;;25.98;14.80;;;5.10;99.90;;;;;;5022959;28;20136;-79
2023/02/05 11:20:05;;;;;;;20.00;13.50;;;5.10;99.90;;;;;;5044534;28;20572;-78
2023/02/05 11:22:34;;;;;;;20.33;12.15;;;5.10;99.90;;;;;;5028685;28;20104;-78
2023/02/05 11:25:06;;;;;;;17.58;11.82;;;5.10;99.90;;;;;;5013261;28;20118;-78
2023/02/05 11:27:34;;;;;;;20.63;12.63;;;5.00;99.90;;;;;;5028782;28;20394;-77
2023/02/05 11:30:34;;;;;;;21.63;12.88;;;5.00;99.90;;;;;;5032032;28;20037;-79
2023/02/05 11:33:27;;;;;;;20.85;13.60;;;5.10;99.90;;;;;;5010808;28;20045;-77
2023/02/05 11:36:00;;;;;;;17.25;12.68;;;5.10;99.90;;;;;;5007208;28;20053;-78
2023/02/05 11:38:56;;;;;;;19.42;13.63;;;5.20;99.90;;;;;;5010476;28;20406;-78
2023/02/05 11:41:50;;;;;;;20.20;13.65;;;5.30;99.90;;;;;;5016700;28;20071;-79
2023/02/05 11:44:27;;;;;;;20.80;13.25;;;5.30;99.90;;;;;;5012466;28;20641;-78
2023/02/05 11:46:59;;;;;;;24.77;15.32;;;5.30;99.90;;;;;;5009745;28;20542;-78
2023/02/05 11:49:30;;;;;;;23.88;14.90;;;5.40;99.90;;;;;;5022352;28;20072;-79
2023/02/05 11:51:57;;;;;;;20.73;13.38;;;5.40;99.90;;;;;;5027969;28;20133;-77
2023/02/05 11:54:30;;;;;;;25.50;13.90;;;5.50;99.90;;;;;;5009591;28;20052;-78
2023/02/05 11:57:13;;;;;;;21.92;13.82;;;5.30;99.90;;;;;;5039118;28;20510;-78
2023/02/05 11:59:40;;;;;;;35.50;17.38;;;5.20;99.90;;;;;;5021466;28;20045;-77
2023/02/05 12:02:29;;;;;;;31.55;15.55;;;5.20;99.90;;;;;;5011737;28;20072;-78
2023/02/05 12:05:04;;;;;;;30.80;15.48;;;5.30;99.90;;;;;;5017991;28;20052;-79
2023/02/05 12:07:52;;;;;;;23.55;14.15;;;5.40;99.90;;;;;;5017893;28;20071;-77
2023/02/05 12:10:59;;;;;;;15.07;10.25;;;5.40;99.90;;;;;;5028093;28;20088;-78
2023/02/05 12:13:47;;;;;;;21.27;13.63;;;5.40;99.90;;;;;;5026399;28;20114;-77
2023/02/05 12:16:46;;;;;;;15.57;10.98;;;5.40;99.90;;;;;;5087668;27;20516;-74
2023/02/05 12:19:24;;;;;;;15.98;10.35;;;5.60;99.90;;;;;;5089042;28;20068;-72
2023/02/05 12:22:14;;;;;;;14.45;9.65;;;5.60;99.90;;;;;;5085078;28;20486;-72
2023/02/05 12:24:46;;;;;;;11.25;8.73;;;5.50;99.90;;;;;;5085103;28;20052;-69
2023/02/05 12:27:31;;;;;;;9.75;8.32;;;5.40;99.90;;;;;;5088434;28;20043;-69
2023/02/05 12:30:19;;;;;;;;;;;5.40;99.90;;;;;;5096040;28;20492;-70
2023/02/05 12:33:11;;;;;;;10.65;7.05;;;5.30;99.90;;;;;;5093678;28;19926;-70
2023/02/05 12:35:51;;;;;;;8.55;7.65;;;5.30;99.90;;;;;;5090469;27;20126;-69
2023/02/05 12:38:46;;;;;;;13.77;8.57;;;5.40;99.90;;;;;;5094931;28;20048;-69
2023/02/05 12:41:43;;;;;;;9.73;8.15;;;5.40;99.90;;;;;;5093631;28;20514;-69
2023/02/05 12:44:43;;;;;;;10.23;6.40;;;5.40;99.90;;;;;;5091268;28;20047;-69
2023/02/05 12:47:27;;;;;;;8.25;7.28;;;5.20;99.90;;;;;;5094379;27;20047;-70
2023/02/05 12:50:30;;;;;;;9.63;7.40;;;5.30;99.90;;;;;;5086487;28;20055;-69
2023/02/05 12:53:03;;;;;;;10.75;7.82;;;5.50;99.90;;;;;;5092770;28;20040;-70
2023/02/05 12:55:46;;;;;;;14.52;9.98;;;5.40;99.90;;;;;;5087991;27;20043;-69
2023/02/05 12:58:15;;;;;;;15.63;11.27;;;5.30;99.90;;;;;;5096688;28;20051;-70
2023/02/05 13:00:53;;;;;;;15.35;10.73;;;5.10;99.90;;;;;;5099428;28;20557;-70
2023/02/05 13:03:41;;;;;;;19.60;12.70;;;5.10;99.90;;;;;;5097928;28;20051;-70
2023/02/05 13:06:31;;;;;;;18.08;12.10;;;5.00;99.90;;;;;;5095415;28;20036;-70